Time;durP1;ratioP1;P1;durP2;ratioP2;P2;SDS_P1;SDS_P2;PMS_P1;PMS_P2;Temp;Humidity;BMP_temperature;BMP_pressure;BME280_temperature;BME280_humidity;BME280_pressure;Samples;Min_cycle;Max_cycle;Signal;HPM_P1;HPM_P2
2020/12/02 00:00:59;;;;;;;19.07;12.30;;;4.90;99.90;;;;;;5090399;28;20228;-62
2020/12/02 00:03:32;;;;;;;19.83;13.30;;;4.90;99.90;;;;;;5090301;28;20920;-62
2020/12/02 00:05:59;;;;;;;17.43;12.30;;;4.80;99.90;;;;;;5090419;28;20211;-62
2020/12/02 00:08:29;;;;;;;18.27;12.70;;;4.70;99.90;;;;;;5089932;28;20220;-63
2020/12/02 00:10:55;;;;;;;19.33;11.97;;;4.70;99.90;;;;;;5090706;28;20220;-63
2020/12/02 00:13:24;;;;;;;19.40;13.53;;;4.70;99.90;;;;;;5091026;28;20698;-63
2020/12/02 00:15:51;;;;;;;17.80;12.13;;;4.60;99.90;;;;;;5085371;28;20201;-65
2020/12/02 00:18:18;;;;;;;18.43;12.80;;;4.60;99.90;;;;;;5093475;28;20281;-66
2020/12/02 00:20:44;;;;;;;18.50;12.20;;;4.70;99.90;;;;;;5093851;28;20700;-66
2020/12/02 00:23:11;;;;;;;15.97;11.40;;;4.80;99.90;;;;;;5093234;28;20630;-63
2020/12/02 00:25:37;;;;;;;17.53;11.80;;;4.90;99.90;;;;;;5093247;28;20768;-62
2020/12/02 00:28:05;;;;;;;16.50;12.10;;;4.90;99.90;;;;;;5093683;28;20212;-62
2020/12/02 00:30:34;;;;;;;14.73;10.90;;;4.90;99.90;;;;;;5093367;28;20220;-62
2020/12/02 00:33:08;;;;;;;18.97;12.40;;;4.90;99.90;;;;;;5093372;28;20216;-63
2020/12/02 00:35:35;;;;;;;16.47;11.57;;;4.90;99.90;;;;;;5093103;28;20204;-63
2020/12/02 00:38:01;;;;;;;18.97;11.50;;;5.00;99.90;;;;;;5093469;28;20251;-63
2020/12/02 00:40:27;;;;;;;17.97;11.20;;;5.00;99.90;;;;;;5093916;28;20238;-63
2020/12/02 00:42:53;;;;;;;17.23;11.83;;;5.00;99.90;;;;;;5093347;28;20737;-63
2020/12/02 00:45:20;;;;;;;16.80;12.03;;;5.10;99.90;;;;;;5093102;28;20208;-63
2020/12/02 00:47:50;;;;;;;16.83;11.30;;;4.90;99.90;;;;;;5093196;28;20216;-62
2020/12/02 00:50:18;;;;;;;16.37;11.53;;;4.90;99.90;;;;;;5093685;28;20252;-63
2020/12/02 00:52:59;;;;;;;15.47;11.93;;;4.90;99.90;;;;;;5093153;28;20668;-63
2020/12/02 00:55:25;;;;;;;19.03;12.97;;;4.90;99.90;;;;;;5092725;28;20641;-63
2020/12/02 00:57:54;;;;;;;18.17;12.23;;;5.00;99.90;;;;;;5092711;28;20213;-68
2020/12/02 01:00:21;;;;;;;17.77;12.10;;;5.00;99.90;;;;;;5092757;28;20232;-63
2020/12/02 01:02:58;;;;;;;17.93;11.50;;;5.00;99.90;;;;;;5090477;28;20219;-62
2020/12/02 01:05:26;;;;;;;15.57;11.43;;;5.10;99.90;;;;;;5090805;28;20236;-63
2020/12/02 01:07:52;;;;;;;17.42;13.15;;;5.20;99.90;;;;;;5088083;28;20936;-62
2020/12/02 01:10:18;;;;;;;19.53;12.77;;;5.20;99.90;;;;;;5092051;28;20695;-61
2020/12/02 01:12:46;;;;;;;15.60;10.97;;;5.20;99.90;;;;;;5092422;28;20204;-63
2020/12/02 01:15:19;;;;;;;16.43;11.37;;;5.20;99.90;;;;;;5092364;28;20208;-62
2020/12/02 01:18:05;;;;;;;15.37;10.63;;;5.20;99.90;;;;;;5088226;28;20228;-63
2020/12/02 01:20:32;;;;;;;16.17;11.53;;;5.30;99.90;;;;;;5072218;28;20229;-66
2020/12/02 01:22:58;;;;;;;17.27;11.23;;;5.20;99.90;;;;;;5075361;28;20649;-63
2020/12/02 01:25:26;;;;;;;16.33;10.90;;;5.20;99.90;;;;;;5074287;28;20346;-63
2020/12/02 01:27:57;;;;;;;14.23;10.50;;;5.20;99.90;;;;;;5075685;28;20209;-63
2020/12/02 01:30:24;;;;;;;64.47;50.63;;;5.10;99.90;;;;;;5075748;28;20685;-63
2020/12/02 01:32:50;;;;;;;26.00;19.07;;;4.90;99.90;;;;;;5074998;28;20212;-63
2020/12/02 01:35:21;;;;;;;17.07;11.03;;;4.90;99.90;;;;;;5074308;28;20215;-63
2020/12/02 01:37:52;;;;;;;15.47;10.73;;;5.10;99.90;;;;;;5074736;28;20201;-63
2020/12/02 01:40:21;;;;;;;14.83;10.67;;;5.20;99.90;;;;;;5073852;28;20236;-63
2020/12/02 01:42:54;;;;;;;16.33;11.63;;;5.30;99.90;;;;;;5074224;28;20208;-63
2020/12/02 01:45:25;;;;;;;15.87;11.27;;;5.30;99.90;;;;;;5073556;28;20721;-63
2020/12/02 01:48:10;;;;;;;14.93;10.70;;;5.20;99.90;;;;;;5073489;28;20673;-62
2020/12/02 01:50:39;;;;;;;16.43;10.73;;;5.20;99.90;;;;;;5072796;28;20244;-63
2020/12/02 01:53:13;;;;;;;16.33;10.93;;;5.20;99.90;;;;;;5073215;28;20205;-62
2020/12/02 01:55:43;;;;;;;15.10;10.70;;;5.20;99.90;;;;;;5072774;28;20278;-63
2020/12/02 01:58:17;;;;;;;13.70;10.60;;;5.20;99.90;;;;;;5072787;28;20406;-62
2020/12/02 02:00:47;;;;;;;14.90;10.53;;;5.30;99.90;;;;;;5073032;28;20252;-62
2020/12/02 02:03:15;;;;;;;14.73;10.77;;;5.30;99.90;;;;;;5073645;28;20201;-63
2020/12/02 02:05:50;;;;;;;15.83;11.03;;;5.20;99.90;;;;;;5074501;28;20208;-63
2020/12/02 02:08:18;;;;;;;15.87;10.97;;;5.30;99.90;;;;;;5075382;28;20208;-63
2020/12/02 02:10:47;;;;;;;14.00;9.97;;;5.30;99.90;;;;;;5076371;28;20224;-63
2020/12/02 02:13:55;;;;;;;14.20;10.27;;;5.30;99.90;;;;;;5072778;28;20215;-64
2020/12/02 02:16:26;;;;;;;14.87;10.17;;;5.30;99.90;;;;;;5061397;28;20230;-63
2020/12/02 02:18:52;;;;;;;14.77;10.37;;;5.30;99.90;;;;;;5072634;28;20224;-63
2020/12/02 02:21:20;;;;;;;16.03;11.00;;;5.30;99.90;;;;;;5071942;28;20235;-63
2020/12/02 02:23:48;;;;;;;15.43;11.00;;;5.30;99.90;;;;;;5071705;28;20210;-64
2020/12/02 02:26:26;;;;;;;14.97;10.40;;;5.30;99.90;;;;;;5071731;28;20216;-63
2020/12/02 02:28:58;;;;;;;13.50;9.67;;;5.30;99.90;;;;;;5071724;28;20193;-64
2020/12/02 02:31:28;;;;;;;16.43;10.73;;;5.40;99.90;;;;;;5072156;28;20327;-64
2020/12/02 02:33:57;;;;;;;17.27;11.83;;;5.40;99.90;;;;;;5071898;28;20654;-63
2020/12/02 02:36:26;;;;;;;17.90;12.03;;;5.40;99.90;;;;;;5071712;28;20205;-63
2020/12/02 02:38:53;;;;;;;16.70;10.90;;;5.40;99.90;;;;;;5071369;28;20197;-63
2020/12/02 02:41:20;;;;;;;15.77;10.77;;;5.40;99.90;;;;;;5071244;28;20225;-64
2020/12/02 02:43:47;;;;;;;17.67;10.70;;;5.30;99.90;;;;;;5071052;28;20220;-63
2020/12/02 02:46:13;;;;;;;14.63;10.67;;;5.30;99.90;;;;;;5071692;28;20232;-65
2020/12/02 02:48:40;;;;;;;15.23;10.03;;;5.20;99.90;;;;;;5073400;28;20603;-62
2020/12/02 02:51:06;;;;;;;15.00;10.40;;;5.20;99.90;;;;;;5074722;28;20224;-63
2020/12/02 02:53:33;;;;;;;14.17;9.70;;;5.10;99.90;;;;;;5074810;28;20215;-63
2020/12/02 02:56:00;;;;;;;13.07;9.63;;;5.10;99.90;;;;;;5074815;28;20296;-63
2020/12/02 02:58:28;;;;;;;15.30;10.57;;;5.00;99.90;;;;;;5074457;28;20300;-63
2020/12/02 03:00:57;;;;;;;13.70;9.93;;;4.90;99.90;;;;;;5073502;28;20334;-62
2020/12/02 03:03:23;;;;;;;15.17;9.80;;;4.90;99.90;;;;;;5070789;28;20216;-63
2020/12/02 03:05:50;;;;;;;13.23;9.97;;;4.90;99.90;;;;;;5070825;28;20220;-63
2020/12/02 03:08:17;;;;;;;14.83;10.43;;;4.80;99.90;;;;;;5070657;28;20263;-62
2020/12/02 03:10:45;;;;;;;15.10;10.67;;;4.80;99.90;;;;;;5070705;28;20224;-62
2020/12/02 03:13:20;;;;;;;13.13;9.60;;;4.70;99.90;;;;;;5070980;28;20200;-62
2020/12/02 03:15:47;;;;;;;14.70;10.40;;;4.60;99.90;;;;;;5070439;28;20208;-63
2020/12/02 03:18:14;;;;;;;14.50;10.00;;;4.70;99.90;;;;;;5070436;28;20204;-63
2020/12/02 03:20:45;;;;;;;15.07;10.03;;;4.70;99.90;;;;;;5070721;28;20239;-63
2020/12/02 03:23:13;;;;;;;13.70;9.90;;;4.70;99.90;;;;;;5071091;28;20208;-62
2020/12/02 03:25:42;;;;;;;14.27;11.20;;;4.80;99.90;;;;;;5070596;28;20209;-63
2020/12/02 03:28:08;;;;;;;14.07;10.90;;;4.80;99.90;;;;;;5070707;28;20247;-63
2020/12/02 03:30:34;;;;;;;13.63;10.70;;;4.80;99.90;;;;;;5070540;28;20221;-64
2020/12/02 03:33:01;;;;;;;15.17;10.90;;;4.90;99.90;;;;;;5070558;28;20223;-63
2020/12/02 03:35:27;;;;;;;15.17;10.70;;;5.00;99.90;;;;;;5070704;28;20207;-63
2020/12/02 03:37:54;;;;;;;12.47;9.60;;;5.10;99.90;;;;;;5070498;28;20212;-63
2020/12/02 03:40:20;;;;;;;14.60;10.03;;;5.20;99.90;;;;;;5070740;28;20452;-63
2020/12/02 03:42:47;;;;;;;12.63;9.50;;;5.20;99.90;;;;;;5070506;28;20247;-63
2020/12/02 03:45:13;;;;;;;13.63;10.07;;;5.10;99.90;;;;;;5070197;28;20205;-62
2020/12/02 03:47:39;;;;;;;12.47;9.00;;;5.00;99.90;;;;;;5070234;28;20571;-62
2020/12/02 03:50:08;;;;;;;12.30;10.00;;;4.90;99.90;;;;;;5073971;28;20233;-62
2020/12/02 03:52:34;;;;;;;11.93;9.10;;;4.60;99.90;;;;;;5074534;28;20215;-63
2020/12/02 03:55:00;;;;;;;14.00;10.43;;;4.50;99.90;;;;;;5073913;28;20213;-64
2020/12/02 03:57:27;;;;;;;12.53;9.70;;;4.50;99.90;;;;;;5074301;28;20209;-63
2020/12/02 03:59:53;;;;;;;12.43;9.63;;;4.50;99.90;;;;;;5073612;28;20228;-62
2020/12/02 04:02:19;;;;;;;12.30;9.57;;;4.50;99.90;;;;;;5074337;28;20209;-63
2020/12/02 04:04:45;;;;;;;12.90;9.70;;;4.60;99.90;;;;;;5074402;28;20209;-63
2020/12/02 04:07:13;;;;;;;11.80;9.60;;;4.60;99.90;;;;;;5074666;28;20205;-63
2020/12/02 04:09:39;;;;;;;13.23;10.37;;;4.70;99.90;;;;;;5074067;28;20224;-65
2020/12/02 04:12:05;;;;;;;13.77;10.53;;;4.80;99.90;;;;;;5074602;28;20204;-63
2020/12/02 04:14:31;;;;;;;10.97;9.13;;;4.80;99.90;;;;;;5074177;28;20578;-62
2020/12/02 04:16:58;;;;;;;13.27;10.40;;;4.80;99.90;;;;;;5074618;28;20215;-63
2020/12/02 04:19:24;;;;;;;13.10;10.40;;;4.90;99.90;;;;;;5074266;28;20556;-62
2020/12/02 04:21:50;;;;;;;12.37;9.77;;;5.00;99.90;;;;;;5074715;28;20236;-62
2020/12/02 04:24:17;;;;;;;12.37;9.77;;;5.10;99.90;;;;;;5077648;28;20224;-63
2020/12/02 04:26:45;;;;;;;12.90;9.80;;;5.00;99.90;;;;;;5079558;28;20296;-62
2020/12/02 04:29:11;;;;;;;13.03;9.63;;;5.00;99.90;;;;;;5078074;28;20686;-62
2020/12/02 04:31:38;;;;;;;12.63;9.53;;;5.00;99.90;;;;;;5078241;28;20225;-63
2020/12/02 04:34:04;;;;;;;11.60;9.43;;;5.00;99.90;;;;;;5077857;28;20713;-62
2020/12/02 04:36:30;;;;;;;11.80;9.27;;;5.10;99.90;;;;;;5077590;28;20213;-62
2020/12/02 04:38:56;;;;;;;13.00;9.83;;;5.20;99.90;;;;;;5076108;28;20208;-63
2020/12/02 04:41:23;;;;;;;11.40;9.20;;;5.20;99.90;;;;;;5076195;28;20232;-62
2020/12/02 04:43:54;;;;;;;13.97;10.40;;;5.20;99.90;;;;;;5076636;28;20205;-63
2020/12/02 04:46:24;;;;;;;12.53;9.60;;;5.20;99.90;;;;;;5075727;28;20224;-63
2020/12/02 04:48:53;;;;;;;11.70;9.80;;;5.10;99.90;;;;;;5075162;28;20223;-63
2020/12/02 04:51:23;;;;;;;11.70;9.27;;;5.00;99.90;;;;;;5074388;28;20217;-63
2020/12/02 04:53:51;;;;;;;12.53;10.00;;;4.90;99.90;;;;;;5072762;28;20700;-62
2020/12/02 04:56:19;;;;;;;13.13;9.80;;;4.80;99.90;;;;;;5073438;28;20618;-62
2020/12/02 04:58:48;;;;;;;13.00;10.07;;;4.90;99.90;;;;;;5073131;28;20205;-62
2020/12/02 05:01:18;;;;;;;13.53;10.10;;;4.90;99.90;;;;;;5072849;28;20257;-62
2020/12/02 05:03:54;;;;;;;13.33;9.77;;;4.90;99.90;;;;;;5073548;28;20308;-63
2020/12/02 05:06:25;;;;;;;12.90;9.70;;;4.70;99.90;;;;;;5073395;28;20216;-62
2020/12/02 05:08:51;;;;;;;12.70;9.87;;;4.70;99.90;;;;;;5073042;28;20213;-63
2020/12/02 05:11:17;;;;;;;13.73;9.87;;;4.70;99.90;;;;;;5073284;28;20225;-63
2020/12/02 05:13:59;;;;;;;13.97;10.13;;;4.70;99.90;;;;;;5072980;28;20209;-63
2020/12/02 05:16:26;;;;;;;13.53;9.77;;;4.60;99.90;;;;;;5073403;28;20298;-62
2020/12/02 05:19:00;;;;;;;14.27;11.73;;;4.50;99.90;;;;;;5072764;28;20576;-63
2020/12/02 05:21:32;;;;;;;10.80;8.47;;;4.30;99.90;;;;;;5072751;28;20233;-63
2020/12/02 05:24:08;;;;;;;12.13;9.27;;;4.30;99.90;;;;;;5073328;28;20209;-62
2020/12/02 05:26:39;;;;;;;12.07;9.63;;;4.40;99.90;;;;;;5073278;28;20645;-63
2020/12/02 05:29:23;;;;;;;12.23;9.50;;;4.50;99.90;;;;;;5072863;28;20209;-63
2020/12/02 05:31:51;;;;;;;13.63;10.13;;;4.60;99.90;;;;;;5073235;28;20292;-62
2020/12/02 05:34:20;;;;;;;12.17;9.60;;;4.60;99.90;;;;;;5072662;28;20227;-62
2020/12/02 05:36:51;;;;;;;13.40;9.90;;;4.70;99.90;;;;;;5072884;28;20213;-63
2020/12/02 05:39:28;;;;;;;12.33;9.33;;;4.80;99.90;;;;;;5072868;28;20205;-62
2020/12/02 05:41:56;;;;;;;11.30;8.93;;;4.80;99.90;;;;;;5072556;28;20224;-62
2020/12/02 05:44:30;;;;;;;10.90;9.00;;;4.80;99.90;;;;;;5072219;28;20216;-62
2020/12/02 05:46:59;;;;;;;15.30;9.63;;;4.80;99.90;;;;;;5072116;28;20402;-62
2020/12/02 05:49:39;;;;;;;12.60;9.70;;;4.90;99.90;;;;;;5071731;28;20212;-62
2020/12/02 05:52:12;;;;;;;14.80;10.37;;;4.90;99.90;;;;;;5072665;28;20315;-62
2020/12/02 05:54:40;;;;;;;11.67;9.07;;;4.90;99.90;;;;;;5072420;28;20240;-62
2020/12/02 05:57:07;;;;;;;12.30;9.13;;;4.90;99.90;;;;;;5072913;28;20240;-62
2020/12/02 05:59:34;;;;;;;11.87;9.13;;;4.80;99.90;;;;;;5072402;28;20204;-62
2020/12/02 06:02:01;;;;;;;12.03;9.23;;;4.80;99.90;;;;;;5072575;28;20481;-63
2020/12/02 06:04:28;;;;;;;12.00;9.03;;;4.70;99.90;;;;;;5072237;28;20673;-62
2020/12/02 06:06:55;;;;;;;11.13;8.50;;;4.70;99.90;;;;;;5072314;28;20205;-62
2020/12/02 06:09:29;;;;;;;12.07;8.80;;;4.50;99.90;;;;;;5071514;28;20609;-62
2020/12/02 06:12:03;;;;;;;13.20;9.27;;;4.50;99.90;;;;;;5071993;28;20574;-62
2020/12/02 06:14:31;;;;;;;13.20;9.43;;;4.50;99.90;;;;;;5071882;28;20204;-62
2020/12/02 06:17:00;;;;;;;12.80;9.67;;;4.40;99.90;;;;;;5071624;28;20243;-62
2020/12/02 06:19:30;;;;;;;12.27;9.13;;;4.40;99.90;;;;;;5071090;28;20703;-62
2020/12/02 06:21:58;;;;;;;12.83;9.70;;;4.40;99.90;;;;;;5071637;28;20229;-62
2020/12/02 06:24:39;;;;;;;12.63;9.27;;;4.40;99.90;;;;;;5071499;28;20212;-62
2020/12/02 06:27:41;;;;;;;13.73;10.23;;;4.40;99.90;;;;;;5071523;28;20204;-62
2020/12/02 06:30:20;;;;;;;14.60;9.97;;;4.50;99.90;;;;;;5049632;28;20231;-62
2020/12/02 06:33:03;;;;;;;15.07;10.47;;;4.50;99.90;;;;;;5071485;28;20212;-62
2020/12/02 06:35:29;;;;;;;14.37;10.43;;;4.60;99.90;;;;;;5070918;28;20204;-62
2020/12/02 06:38:21;;;;;;;13.93;9.80;;;4.60;99.90;;;;;;5070854;28;20209;-62
2020/12/02 06:41:20;;;;;;;14.83;10.53;;;4.70;99.90;;;;;;5070767;28;20260;-62
2020/12/02 06:43:54;;;;;;;14.67;9.83;;;4.60;99.90;;;;;;5070826;28;20211;-62
2020/12/02 06:46:43;;;;;;;15.67;10.87;;;4.50;99.90;;;;;;5071231;28;20691;-63
2020/12/02 06:49:11;;;;;;;17.13;11.00;;;4.50;99.90;;;;;;5070755;28;20255;-62
2020/12/02 06:51:37;;;;;;;18.47;11.00;;;4.50;99.90;;;;;;5070728;28;20232;-62
2020/12/02 06:54:04;;;;;;;16.37;11.07;;;4.40;99.90;;;;;;5070487;28;20224;-62
2020/12/02 06:56:30;;;;;;;15.50;11.23;;;4.40;99.90;;;;;;5071044;28;20213;-63
2020/12/02 06:59:01;;;;;;;18.07;11.27;;;4.40;99.90;;;;;;5070505;28;20570;-63
2020/12/02 07:01:28;;;;;;;14.30;10.33;;;4.50;99.90;;;;;;5070671;28;20835;-61
2020/12/02 07:03:59;;;;;;;16.00;10.87;;;4.50;99.90;;;;;;5070796;28;20205;-61
2020/12/02 07:06:27;;;;;;;13.77;10.30;;;4.50;99.90;;;;;;5071129;28;20212;-61
2020/12/02 07:09:01;;;;;;;16.33;11.17;;;4.50;99.90;;;;;;5070526;28;20208;-61
2020/12/02 07:11:28;;;;;;;14.07;10.83;;;4.50;99.90;;;;;;5070921;28;20220;-61
2020/12/02 07:13:55;;;;;;;16.13;11.13;;;4.50;99.90;;;;;;5070996;28;20212;-61
2020/12/02 07:16:25;;;;;;;19.17;12.07;;;4.40;99.90;;;;;;5071278;28;20208;-61
2020/12/02 07:18:55;;;;;;;17.93;11.47;;;4.50;99.90;;;;;;5070944;28;20205;-61
2020/12/02 07:21:30;;;;;;;17.13;11.63;;;4.50;99.90;;;;;;5071331;28;20699;-61
2020/12/02 07:23:58;;;;;;;17.17;11.07;;;4.40;99.90;;;;;;5072526;28;20234;-62
2020/12/02 07:26:25;;;;;;;16.03;10.80;;;4.30;99.90;;;;;;5075290;28;20232;-62
2020/12/02 07:28:59;;;;;;;18.37;11.60;;;4.20;99.90;;;;;;5075435;28;20200;-61
2020/12/02 07:31:27;;;;;;;15.40;10.60;;;4.30;99.90;;;;;;5075572;28;20226;-61
2020/12/02 07:34:06;;;;;;;18.50;11.40;;;4.30;99.90;;;;;;5075258;28;20218;-61
2020/12/02 07:36:35;;;;;;;18.43;12.20;;;4.40;99.90;;;;;;5074701;28;20231;-61
2020/12/02 07:39:12;;;;;;;17.07;11.80;;;4.30;99.90;;;;;;5074573;28;20201;-62
2020/12/02 07:41:48;;;;;;;19.77;12.70;;;4.30;99.90;;;;;;5074661;28;20239;-61
2020/12/02 07:44:16;;;;;;;18.90;11.80;;;4.30;99.90;;;;;;5074130;28;20213;-61
2020/12/02 07:46:42;;;;;;;22.20;12.47;;;4.40;99.90;;;;;;5074725;28;20205;-61
2020/12/02 07:49:10;;;;;;;22.77;13.17;;;4.40;99.90;;;;;;5074599;28;20263;-61
2020/12/02 07:51:42;;;;;;;17.40;11.63;;;4.40;99.90;;;;;;5074471;28;20712;-62
2020/12/02 07:54:15;;;;;;;18.27;11.77;;;4.50;99.90;;;;;;5073929;28;20212;-62
2020/12/02 07:56:43;;;;;;;18.37;12.37;;;4.40;99.90;;;;;;5074521;28;20205;-62
2020/12/02 07:59:19;;;;;;;19.47;11.80;;;4.50;99.90;;;;;;5074299;28;20220;-61
2020/12/02 08:02:07;;;;;;;17.87;11.77;;;4.50;99.90;;;;;;5074278;28;20236;-62
2020/12/02 08:04:49;;;;;;;18.90;11.37;;;4.50;99.90;;;;;;5073922;28;20212;-62
2020/12/02 08:07:16;;;;;;;18.23;12.53;;;4.60;99.90;;;;;;5074049;28;20205;-62
2020/12/02 08:09:45;;;;;;;17.70;11.77;;;4.60;99.90;;;;;;5073528;28;20228;-62
2020/12/02 08:12:14;;;;;;;17.90;11.73;;;4.60;99.90;;;;;;5074336;28;20196;-62
2020/12/02 08:14:44;;;;;;;17.63;12.17;;;4.60;99.90;;;;;;5073720;28;20211;-62
2020/12/02 08:17:17;;;;;;;19.73;12.47;;;4.60;99.90;;;;;;5073994;28;20690;-62
2020/12/02 08:19:46;;;;;;;17.87;11.87;;;4.70;99.90;;;;;;5073360;28;20232;-62
2020/12/02 08:22:21;;;;;;;17.00;10.80;;;4.70;99.90;;;;;;5073481;28;20595;-62
2020/12/02 08:24:52;;;;;;;20.87;12.07;;;4.70;99.90;;;;;;5073662;28;20211;-62
2020/12/02 08:27:18;;;;;;;22.17;12.67;;;4.70;99.90;;;;;;5073833;28;20204;-62
2020/12/02 08:29:48;;;;;;;18.47;12.40;;;4.80;99.90;;;;;;5073424;28;20225;-62
2020/12/02 08:32:20;;;;;;;16.33;10.47;;;4.90;99.90;;;;;;5073730;28;20215;-62
2020/12/02 08:34:47;;;;;;;17.60;10.93;;;4.90;99.90;;;;;;5072039;28;20209;-62
2020/12/02 08:37:35;;;;;;;29.40;16.40;;;4.90;99.90;;;;;;5073276;28;20672;-62
2020/12/02 08:40:36;;;;;;;27.80;17.37;;;5.00;99.90;;;;;;5073281;28;20225;-62
2020/12/02 08:43:29;;;;;;;15.73;9.77;;;5.10;99.90;;;;;;5068345;28;20250;-62
2020/12/02 08:46:02;;;;;;;17.23;11.07;;;5.20;99.90;;;;;;5073475;28;20216;-62
2020/12/02 08:48:29;;;;;;;20.43;11.43;;;5.30;99.90;;;;;;5073205;28;20255;-62
2020/12/02 08:50:55;;;;;;;15.03;10.00;;;5.40;99.90;;;;;;5073614;28;20225;-62
2020/12/02 08:53:25;;;;;;;16.53;11.20;;;5.50;99.90;;;;;;5074084;28;20228;-62
2020/12/02 08:55:51;;;;;;;14.60;10.10;;;5.60;99.90;;;;;;5073130;28;20295;-62
2020/12/02 08:58:19;;;;;;;19.37;12.27;;;5.60;99.90;;;;;;5072825;28;20672;-62
2020/12/02 09:00:45;;;;;;;15.70;10.60;;;5.70;99.90;;;;;;5073141;28;20674;-60
2020/12/02 09:03:11;;;;;;;20.97;12.47;;;5.30;99.90;;;;;;5073310;28;20200;-59
2020/12/02 09:05:37;;;;;;;18.63;11.67;;;5.30;99.90;;;;;;5072778;28;20220;-58
2020/12/02 09:08:04;;;;;;;16.20;10.50;;;5.20;99.90;;;;;;5072798;28;20212;-58
2020/12/02 09:10:30;;;;;;;17.37;10.47;;;5.20;99.90;;;;;;5073333;28;20237;-59
2020/12/02 09:12:56;;;;;;;18.90;11.40;;;5.10;99.90;;;;;;5073158;28;20228;-58
2020/12/02 09:15:23;;;;;;;16.43;10.00;;;5.10;99.90;;;;;;5072939;28;20234;-58
2020/12/02 09:17:50;;;;;;;17.83;11.20;;;5.20;99.90;;;;;;5072977;28;20215;-58
2020/12/02 09:20:17;;;;;;;19.50;13.60;;;5.30;99.90;;;;;;5078382;28;20948;-60
2020/12/02 09:22:43;;;;;;;18.17;12.37;;;5.40;99.90;;;;;;5093051;28;20319;-62
2020/12/02 09:25:09;;;;;;;18.13;11.13;;;5.50;99.90;;;;;;5092492;28;20215;-65
2020/12/02 09:27:36;;;;;;;18.80;11.67;;;5.60;99.90;;;;;;5093839;28;20204;-68
2020/12/02 09:30:04;;;;;;;21.33;13.47;;;5.50;99.90;;;;;;5093712;28;20283;-64
2020/12/02 09:32:31;;;;;;;18.30;12.27;;;5.40;99.90;;;;;;5094115;28;20491;-67
2020/12/02 09:34:58;;;;;;;20.20;13.00;;;5.30;99.90;;;;;;5092651;28;20212;-66
2020/12/02 09:37:24;;;;;;;30.50;18.47;;;5.30;99.90;;;;;;5093393;28;20204;-68
2020/12/02 09:39:50;;;;;;;20.17;12.73;;;5.40;99.90;;;;;;5093690;28;20231;-67
2020/12/02 09:42:29;;;;;;;18.73;12.30;;;5.30;99.90;;;;;;5094287;28;20269;-67
2020/12/02 09:45:01;;;;;;;18.43;12.03;;;5.40;99.90;;;;;;5093051;28;20204;-66
2020/12/02 09:47:28;;;;;;;17.80;12.00;;;5.60;99.90;;;;;;5092789;28;20664;-63
2020/12/02 09:49:55;;;;;;;20.53;12.80;;;5.60;99.90;;;;;;5092629;28;20224;-64
2020/12/02 09:52:42;;;;;;;17.40;11.40;;;5.70;99.90;;;;;;5093597;28;20212;-65
2020/12/02 09:55:15;;;;;;;17.50;11.47;;;5.50;99.90;;;;;;5092812;28;20706;-67
2020/12/02 09:57:42;;;;;;;17.47;11.77;;;5.40;99.90;;;;;;5093454;28;20204;-66
2020/12/02 10:00:10;;;;;;;17.07;11.47;;;5.30;99.90;;;;;;5092818;28;20220;-66
2020/12/02 10:03:09;;;;;;;17.50;11.20;;;5.20;99.90;;;;;;5093632;28;20231;-66
2020/12/02 10:05:57;;;;;;;18.93;12.07;;;5.30;99.90;;;;;;5092920;28;20429;-64
2020/12/02 10:08:39;;;;;;;18.37;10.90;;;5.50;99.90;;;;;;5093009;28;20220;-64
2020/12/02 10:11:16;;;;;;;22.70;11.30;;;5.40;99.90;;;;;;5093201;28;20231;-64
2020/12/02 10:14:08;;;;;;;17.37;11.13;;;5.30;99.90;;;;;;5092356;28;20630;-65
2020/12/02 10:16:42;;;;;;;18.93;11.10;;;5.10;99.90;;;;;;5092827;28;20208;-64
2020/12/02 10:19:34;;;;;;;17.40;11.27;;;5.00;99.90;;;;;;5092899;28;20197;-66
2020/12/02 10:22:21;;;;;;;21.30;12.70;;;5.00;99.90;;;;;;5092369;28;20224;-65
2020/12/02 10:25:03;;;;;;;23.53;14.00;;;5.00;99.90;;;;;;5091675;28;20208;-64
2020/12/02 10:27:46;;;;;;;19.97;11.70;;;5.10;99.90;;;;;;5092032;28;20735;-65
2020/12/02 10:30:17;;;;;;;20.47;11.70;;;5.10;99.90;;;;;;5092190;28;20232;-63
2020/12/02 10:33:09;;;;;;;18.67;12.27;;;5.10;99.90;;;;;;5092066;28;20212;-63
2020/12/02 10:35:38;;;;;;;18.50;11.27;;;5.10;99.90;;;;;;5090906;28;20606;-63
2020/12/02 10:38:10;;;;;;;17.70;11.60;;;5.10;99.90;;;;;;5091716;28;20211;-62
2020/12/02 10:40:42;;;;;;;20.37;11.70;;;5.00;99.90;;;;;;5091902;28;20228;-64
2020/12/02 10:43:18;;;;;;;18.27;12.33;;;5.10;99.90;;;;;;5091899;28;20200;-63
2020/12/02 10:45:48;;;;;;;19.90;12.70;;;5.20;99.90;;;;;;5091327;28;20232;-64
2020/12/02 10:48:33;;;;;;;21.53;13.17;;;5.30;99.90;;;;;;5090992;28;20707;-65
2020/12/02 10:51:00;;;;;;;23.20;13.27;;;5.30;99.90;;;;;;5091273;28;20220;-64
2020/12/02 10:53:28;;;;;;;19.80;12.20;;;5.30;99.90;;;;;;5091424;28;20220;-63
2020/12/02 10:55:54;;;;;;;19.80;12.70;;;5.40;99.90;;;;;;5091433;28;20242;-66
2020/12/02 10:58:24;;;;;;;20.37;12.13;;;5.40;99.90;;;;;;5090505;28;20212;-65
2020/12/02 11:00:52;;;;;;;20.43;12.20;;;5.50;99.90;;;;;;5091708;28;20254;-65
2020/12/02 11:03:23;;;;;;;20.17;12.97;;;5.70;99.90;;;;;;5091650;28;20227;-65
2020/12/02 11:06:07;;;;;;;20.93;12.90;;;5.80;99.90;;;;;;5091896;28;20208;-65
2020/12/02 11:08:46;;;;;;;23.13;12.13;;;5.90;99.90;;;;;;5091517;28;20208;-66
2020/12/02 11:11:28;;;;;;;24.90;14.17;;;5.70;99.90;;;;;;5091695;28;20227;-65
2020/12/02 11:14:05;;;;;;;23.47;13.50;;;5.70;99.90;;;;;;5090807;28;20211;-66
2020/12/02 11:16:42;;;;;;;20.63;12.60;;;5.80;99.90;;;;;;5092433;28;20291;-64
2020/12/02 11:19:33;;;;;;;21.33;12.83;;;5.80;99.90;;;;;;5091821;28;20204;-65
2020/12/02 11:22:12;;;;;;;22.67;13.17;;;5.70;99.90;;;;;;5092230;28;20228;-64
2020/12/02 11:24:59;;;;;;;21.50;12.57;;;5.50;99.90;;;;;;5090989;28;20667;-65
2020/12/02 11:27:26;;;;;;;24.97;14.20;;;5.50;99.90;;;;;;5091067;28;20207;-64
2020/12/02 11:29:52;;;;;;;25.47;14.10;;;5.70;99.90;;;;;;5090621;28;20223;-65
2020/12/02 11:32:48;;;;;;;25.70;14.87;;;5.70;99.90;;;;;;5091283;28;20605;-65
2020/12/02 11:35:37;;;;;;;29.87;17.30;;;5.80;99.90;;;;;;5090927;28;20269;-65
2020/12/02 11:38:11;;;;;;;26.37;15.13;;;5.60;99.90;;;;;;5090642;28;20218;-64
2020/12/02 11:40:46;;;;;;;28.97;16.50;;;5.40;99.90;;;;;;5090792;28;20234;-65
2020/12/02 11:43:22;;;;;;;26.97;14.43;;;5.50;99.90;;;;;;5090730;28;20204;-64
2020/12/02 11:45:51;;;;;;;27.53;15.00;;;5.60;99.90;;;;;;5090773;28;20245;-64
2020/12/02 11:48:24;;;;;;;24.43;15.03;;;5.70;99.90;;;;;;5090304;28;20267;-64
2020/12/02 11:51:01;;;;;;;33.10;19.20;;;5.80;99.90;;;;;;5091246;28;20232;-64
2020/12/02 11:53:41;;;;;;;24.53;14.10;;;5.70;99.90;;;;;;5090464;28;20235;-65
2020/12/02 11:56:10;;;;;;;26.03;14.70;;;5.70;99.90;;;;;;5090730;28;20265;-64
2020/12/02 11:58:37;;;;;;;25.17;14.23;;;5.60;99.90;;;;;;5090289;28;20204;-65
2020/12/02 12:01:15;;;;;;;24.83;14.70;;;5.60;99.90;;;;;;5090293;28;20700;-63
2020/12/02 12:03:50;;;;;;;27.40;15.07;;;5.70;99.90;;;;;;5090851;28;20713;-64
2020/12/02 12:06:20;;;;;;;26.13;15.03;;;5.60;99.90;;;;;;5091816;28;20566;-65
2020/12/02 12:08:56;;;;;;;27.20;15.80;;;5.50;99.90;;;;;;5092960;28;20207;-65
2020/12/02 12:11:29;;;;;;;28.03;14.20;;;5.40;99.90;;;;;;5096726;28;20227;-63
2020/12/02 12:13:58;;;;;;;27.27;15.73;;;5.20;99.90;;;;;;5098265;28;20584;-66
2020/12/02 12:16:32;;;;;;;30.23;16.73;;;5.00;99.90;;;;;;5099325;28;20214;-63
2020/12/02 12:19:03;;;;;;;28.27;16.13;;;4.90;99.90;;;;;;5096238;28;20215;-64
2020/12/02 12:21:33;;;;;;;26.40;15.63;;;4.90;99.90;;;;;;5097609;28;20680;-65
2020/12/02 12:24:07;;;;;;;27.43;16.77;;;5.00;99.90;;;;;;5095150;28;20622;-65
2020/12/02 12:26:37;;;;;;;69.93;36.47;;;5.10;99.90;;;;;;5096536;28;20201;-65
2020/12/02 12:29:06;;;;;;;31.43;20.57;;;5.00;99.90;;;;;;5094715;28;20208;-65
2020/12/02 12:31:36;;;;;;;24.37;14.53;;;4.80;99.90;;;;;;5095350;28;20228;-65
2020/12/02 12:34:12;;;;;;;24.53;14.90;;;4.70;99.90;;;;;;5095721;28;20219;-65
2020/12/02 12:36:38;;;;;;;26.37;15.43;;;4.50;99.90;;;;;;5094798;28;20215;-64
2020/12/02 12:39:15;;;;;;;24.80;15.63;;;4.60;99.90;;;;;;5094403;28;20204;-65
2020/12/02 12:41:46;;;;;;;25.73;14.77;;;4.50;99.90;;;;;;5094164;28;20236;-64
2020/12/02 12:44:17;;;;;;;23.50;14.17;;;4.30;99.90;;;;;;5093908;28;20200;-63
2020/12/02 12:46:56;;;;;;;19.73;12.30;;;4.30;99.90;;;;;;5093759;28;20200;-64
2020/12/02 12:49:23;;;;;;;20.53;12.90;;;4.30;99.90;;;;;;5093829;28;20215;-64
2020/12/02 12:51:55;;;;;;;22.13;12.57;;;4.30;99.90;;;;;;5093846;28;20238;-64
2020/12/02 12:54:22;;;;;;;21.60;12.80;;;4.40;99.90;;;;;;5093237;28;20215;-64
2020/12/02 12:56:52;;;;;;;21.77;13.30;;;4.60;99.90;;;;;;5093455;28;20207;-64
2020/12/02 12:59:20;;;;;;;21.73;12.70;;;4.70;99.90;;;;;;5094025;28;20472;-63